Belmont, Maine
Current Conditions -  °F | °C
As of 1:15 AM on Monday 22 Dec 2014 (Local Time) from KRKD Reporting Station
Overcast Overcast  
Wind Chill: 23°   Ceiling: 6500
Heat Index: 30°   Visibility: 10mi
Dew Point: 28°   Wind: 7mph
Humidity: 93%   Direction: 20°NNE
Pressure: 30.38"   Gusts: NA
Location:  44.4103°N, 69.1515°W
Report Text: KRKD 220615Z AUTO 02006KT 10SM OVC065 M01/M02 A3038 RMK AO1
Loading
Personal Weather Stations






























Interactive Weather Map New forecast layout! Learn more

10-Day Weather Forecast

Advertisements
Track Severe Weather on mobile